Terminal Aerodrome Forecast
Issued by NWS Newport/Morehead City, NC

Home | Current Version | Previous Version | Text Only | Print | Product List | Glossary On
Versions: 1 2 3 4 5 6 7 8 9 10 11 12 13
965
FTUS42 KMHX 221758
TAFEWN
TAF
KEWN 221758Z 2218/2318 13006KT P6SM SCT050
     FM230800 VRB03KT 6SM BR SCT025
     FM231400 14008KT P6SM BKN030=

USA.gov is the U.S. government's official web portal to all federal, state and local government web resources and services.